Terminal Aerodrome Forecast
Issued by NWS Twin Cities, MN

Home | Current Version | Previous Version | Text Only | Print | Product List | Glossary Off
Versions: 1 2 3 4 5 6 7 8 9 10 11 12 13 14 15 16 17 18 19 20 21 22 23 24 25

000
FTUS43 KMPX 160236 AAA
TAFMSP
TAF AMD
KMSP 160236Z 1603/1706 25003KT P6SM BKN100
     FM160700 25004KT P6SM FEW150
     FM161400 22006KT P6SM SCT250
     FM161900 21010KT P6SM FEW250=

USA.gov is the U.S. government's official web portal to all federal, state and local government web resources and services.